createdAt,value
2022-11-07T00:00:21.137Z,40.28
2022-11-07T00:01:21.252Z,42.22
2022-11-07T00:02:21.186Z,52.85
2022-11-07T00:03:21.141Z,39.96
2022-11-07T00:04:21.095Z,41.25
2022-11-07T00:05:21.084Z,40.61
2022-11-07T00:06:21.070Z,39.80
2022-11-07T00:07:21.068Z,40.44
2022-11-07T00:08:21.055Z,39.48
2022-11-07T00:09:21.047Z,41.57
2022-11-07T00:10:21.040Z,41.73
2022-11-07T00:11:21.036Z,42.06
2022-11-07T00:12:21.019Z,39.32
2022-11-07T00:13:21.654Z,40.28
2022-11-07T00:14:21.008Z,43.34
2022-11-07T00:15:21.007Z,41.25
2022-11-07T00:16:21.002Z,45.60
2022-11-07T00:17:21.016Z,43.34
2022-11-07T00:18:20.977Z,41.09
2022-11-07T00:19:20.968Z,39.96
2022-11-07T00:20:20.959Z,40.77
2022-11-07T00:21:20.956Z,41.89
2022-11-07T00:22:20.947Z,40.77
2022-11-07T00:23:20.928Z,50.27
2022-11-07T00:24:20.923Z,40.93
2022-11-07T00:25:20.918Z,39.48
2022-11-07T00:26:20.907Z,43.18
2022-11-07T00:27:20.958Z,38.35
2022-11-07T00:30:21.057Z,41.73
2022-11-07T00:31:21.048Z,39.96
2022-11-07T00:32:21.047Z,39.16
2022-11-07T00:33:21.022Z,39.48
2022-11-07T00:34:22.117Z,43.99
2022-11-07T00:35:22.100Z,42.86
2022-11-07T00:36:22.091Z,41.41
2022-11-07T00:37:22.105Z,40.28
2022-11-07T00:38:22.078Z,40.44
2022-11-07T00:39:22.986Z,40.93
2022-11-07T00:40:22.058Z,40.44
2022-11-07T00:41:22.058Z,48.66
2022-11-07T00:42:22.046Z,49.95
2022-11-07T00:43:22.044Z,40.61
2022-11-07T00:44:22.033Z,39.32
2022-11-07T00:45:22.027Z,40.12
2022-11-07T00:46:22.030Z,45.28
2022-11-07T00:47:22.028Z,42.22
2022-11-07T00:48:22.016Z,40.61
2022-11-07T00:49:21.987Z,43.83
2022-11-07T00:50:22.989Z,44.96
2022-11-07T00:51:21.980Z,47.37
2022-11-07T00:52:21.971Z,40.93
2022-11-07T00:53:21.980Z,40.77
2022-11-07T00:54:21.958Z,39.32
2022-11-07T00:55:21.967Z,41.09
2022-11-07T00:56:21.944Z,39.80
2022-11-07T00:57:21.928Z,39.96
2022-11-07T00:58:21.921Z,40.28
2022-11-07T00:59:21.913Z,43.34
2022-11-07T01:00:21.899Z,44.63
2022-11-07T01:01:21.987Z,46.57
2022-11-07T01:02:21.985Z,44.96
2022-11-07T01:03:21.880Z,41.09
2022-11-07T01:04:21.870Z,40.77
2022-11-07T01:05:21.861Z,41.73
2022-11-07T01:06:21.858Z,43.18
2022-11-07T01:07:21.852Z,43.34
2022-11-07T01:08:21.833Z,49.47
2022-11-07T01:09:21.829Z,39.64
2022-11-07T01:10:21.828Z,39.32
2022-11-07T01:11:21.828Z,38.83
2022-11-07T01:12:21.814Z,38.35
2022-11-07T01:13:21.802Z,38.67
2022-11-07T01:14:21.804Z,41.73
2022-11-07T01:15:21.790Z,43.67
2022-11-07T01:16:21.781Z,39.96
2022-11-07T01:17:21.777Z,39.64
2022-11-07T01:18:21.751Z,39.32
2022-11-07T01:19:22.754Z,39.48
2022-11-07T01:20:21.739Z,41.25
2022-11-07T01:21:21.731Z,44.15
2022-11-07T01:22:22.503Z,40.12
2022-11-07T01:23:21.712Z,39.32
2022-11-07T01:24:21.715Z,42.38
2022-11-07T01:25:21.706Z,43.51
2022-11-07T01:26:21.831Z,41.41
2022-11-07T01:27:21.687Z,40.12
2022-11-07T01:28:21.674Z,39.96
2022-11-07T01:29:21.668Z,45.60
2022-11-07T01:30:21.672Z,44.31
2022-11-07T01:31:21.656Z,47.21
2022-11-07T01:32:21.660Z,41.57
2022-11-07T01:33:21.637Z,44.15
2022-11-07T01:34:21.635Z,41.09
2022-11-07T01:35:21.625Z,38.83
2022-11-07T01:36:21.643Z,38.35
2022-11-07T01:37:21.607Z,39.32
2022-11-07T01:38:21.606Z,38.83
2022-11-07T01:39:21.601Z,40.44
2022-11-07T01:40:21.585Z,40.28
2022-11-07T01:41:22.529Z,39.32
2022-11-07T01:42:21.571Z,38.19
2022-11-07T01:43:21.561Z,38.67
2022-11-07T01:44:21.555Z,38.67
2022-11-07T01:45:21.541Z,39.80
2022-11-07T01:46:21.541Z,38.83
2022-11-07T01:47:21.534Z,39.48
2022-11-07T01:48:21.517Z,40.77
2022-11-07T01:49:21.518Z,39.16
2022-11-07T01:50:24.676Z,37.87
2022-11-07T01:51:22.505Z,38.83
2022-11-07T01:52:21.494Z,38.67
2022-11-07T01:53:21.481Z,39.80
2022-11-07T01:54:21.473Z,40.61
2022-11-07T01:55:21.470Z,39.64
2022-11-07T01:56:21.464Z,39.80
2022-11-07T01:57:21.448Z,38.99
2022-11-07T01:58:21.462Z,40.61
2022-11-07T01:59:21.441Z,44.63
2022-11-07T02:00:21.422Z,38.35
2022-11-07T02:01:21.498Z,38.35
2022-11-07T02:02:21.512Z,40.61
2022-11-07T02:03:21.435Z,40.28
2022-11-07T02:04:21.388Z,49.15
2022-11-07T02:05:21.392Z,40.44
2022-11-07T02:06:21.375Z,39.32
2022-11-07T02:07:21.930Z,39.32
2022-11-07T02:08:21.372Z,43.02
2022-11-07T02:09:21.351Z,43.99
2022-11-07T02:10:21.343Z,38.67
2022-11-07T02:11:21.336Z,40.61
2022-11-07T02:12:21.333Z,41.57
2022-11-07T02:13:21.326Z,42.06
2022-11-07T02:14:21.399Z,46.41
2022-11-07T02:15:21.303Z,39.16
2022-11-07T02:16:21.307Z,39.80
2022-11-07T02:17:21.291Z,40.44
2022-11-07T02:18:21.314Z,40.77
2022-11-07T02:19:21.272Z,42.06
2022-11-07T02:20:21.271Z,46.08
2022-11-07T02:21:21.255Z,41.25
2022-11-07T02:22:21.251Z,40.93
2022-11-07T02:23:21.243Z,41.89
2022-11-07T02:24:21.231Z,40.28
2022-11-07T02:25:21.224Z,40.93
2022-11-07T02:26:21.218Z,41.57
2022-11-07T02:27:21.206Z,40.44
2022-11-07T02:28:21.207Z,41.41
2022-11-07T02:29:21.188Z,39.80
2022-11-07T02:30:21.183Z,39.96
2022-11-07T02:31:21.174Z,40.44
2022-11-07T02:32:21.184Z,46.25
2022-11-07T02:33:21.157Z,41.09
2022-11-07T02:34:21.156Z,40.44
2022-11-07T02:35:21.143Z,40.93
2022-11-07T02:36:21.146Z,42.70
2022-11-07T02:37:21.147Z,43.99
2022-11-07T02:38:21.123Z,43.18
2022-11-07T02:39:21.113Z,41.73
2022-11-07T02:40:21.128Z,41.73
2022-11-07T02:41:21.104Z,40.61
2022-11-07T02:42:21.091Z,41.57
2022-11-07T02:43:21.100Z,43.34
2022-11-07T02:44:21.078Z,45.60
2022-11-07T02:45:21.076Z,42.86
2022-11-07T02:46:21.944Z,41.09
2022-11-07T02:47:21.046Z,42.06
2022-11-07T02:48:21.056Z,45.60
2022-11-07T02:49:21.033Z,41.89
2022-11-07T02:50:21.017Z,41.89
2022-11-07T02:51:22.033Z,50.11
2022-11-07T02:52:21.025Z,50.76
2022-11-07T02:53:21.008Z,43.51
2022-11-07T02:54:21.010Z,46.08
2022-11-07T02:55:20.987Z,55.43
2022-11-07T02:56:20.997Z,50.60
2022-11-07T02:57:20.980Z,50.92
2022-11-07T02:58:20.973Z,44.96
2022-11-07T02:59:25.846Z,46.73
2022-11-07T03:00:22.971Z,43.67
2022-11-07T03:01:21.281Z,47.37
2022-11-07T03:02:21.229Z,41.57
2022-11-07T03:03:20.930Z,42.54
2022-11-07T03:04:20.914Z,44.31
2022-11-07T03:05:20.924Z,42.22
2022-11-07T03:06:20.901Z,44.31
2022-11-07T03:07:20.894Z,41.57
2022-11-07T03:08:20.898Z,41.41
2022-11-07T03:09:20.924Z,42.22
2022-11-07T03:10:20.865Z,43.99
2022-11-07T03:11:21.530Z,41.57
2022-11-07T03:12:20.850Z,42.22
2022-11-07T03:13:20.848Z,46.08
2022-11-07T03:14:20.878Z,42.38
2022-11-07T03:15:20.831Z,45.12
2022-11-07T03:16:20.825Z,43.02
2022-11-07T03:17:20.821Z,43.67
2022-11-07T03:18:21.819Z,46.08
2022-11-07T03:19:20.800Z,41.73
2022-11-07T03:20:20.811Z,52.69
2022-11-07T03:21:20.781Z,45.76
2022-11-07T03:22:20.768Z,44.31
2022-11-07T03:23:20.765Z,43.51
2022-11-07T03:24:20.762Z,44.47
2022-11-07T03:25:20.747Z,44.15
2022-11-07T03:26:20.734Z,42.86
2022-11-07T03:27:20.737Z,47.21
2022-11-07T03:28:20.721Z,45.76
2022-11-07T03:29:20.703Z,48.18
2022-11-07T03:30:22.451Z,46.73
2022-11-07T03:31:20.712Z,48.82
2022-11-07T03:32:20.697Z,44.15
2022-11-07T03:33:20.683Z,42.70
2022-11-07T03:34:20.671Z,42.06
2022-11-07T03:35:20.664Z,45.12
2022-11-07T03:36:20.658Z,41.25
2022-11-07T03:37:20.647Z,45.60
2022-11-07T03:38:20.640Z,43.34
2022-11-07T03:39:25.493Z,43.34
2022-11-07T03:40:22.620Z,44.63
2022-11-07T03:41:20.627Z,45.76
2022-11-07T03:42:20.611Z,44.31
2022-11-07T03:43:20.606Z,49.47
2022-11-07T03:44:20.595Z,44.15
2022-11-07T03:45:20.591Z,45.12
2022-11-07T03:46:20.589Z,44.15
2022-11-07T03:47:20.575Z,51.40
2022-11-07T03:48:20.558Z,51.72
2022-11-07T03:49:20.559Z,42.86
2022-11-07T03:50:20.551Z,47.86
2022-11-07T03:51:20.540Z,52.53
2022-11-07T03:52:20.530Z,53.01
2022-11-07T03:53:25.118Z,49.79
2022-11-07T03:54:22.515Z,50.27
2022-11-07T03:55:20.522Z,53.33
2022-11-07T03:56:20.498Z,53.98
2022-11-07T03:57:20.494Z,54.46
2022-11-07T03:58:20.520Z,51.88
2022-11-07T03:59:20.486Z,52.21
2022-11-07T04:00:21.035Z,57.04
2022-11-07T04:01:20.516Z,56.24
2022-11-07T04:02:20.613Z,52.05
2022-11-07T04:03:21.033Z,51.72
2022-11-07T04:04:20.480Z,44.15
2022-11-07T04:05:20.433Z,56.40
2022-11-07T04:06:20.430Z,47.21
2022-11-07T04:07:20.432Z,52.85
2022-11-07T04:08:20.402Z,58.17
2022-11-07T04:09:20.396Z,57.69
2022-11-07T04:10:20.396Z,51.24
2022-11-07T04:11:20.386Z,51.08
2022-11-07T04:12:20.372Z,54.95
2022-11-07T04:13:20.364Z,55.27
2022-11-07T04:14:20.369Z,44.96
2022-11-07T04:15:20.356Z,47.70
2022-11-07T04:16:20.346Z,57.04
2022-11-07T04:17:20.347Z,54.62
2022-11-07T04:18:20.348Z,50.92
2022-11-07T04:19:20.324Z,56.40
2022-11-07T04:20:20.322Z,57.04
2022-11-07T04:21:20.368Z,57.69
2022-11-07T04:22:20.302Z,60.10
2022-11-07T04:23:20.288Z,49.95
2022-11-07T04:24:20.286Z,53.98
2022-11-07T04:25:20.267Z,53.50
2022-11-07T04:26:20.266Z,56.72
2022-11-07T04:27:20.266Z,60.42
2022-11-07T04:28:20.296Z,50.11
2022-11-07T04:29:52.995Z,56.40
2022-11-07T04:30:20.329Z,57.36
2022-11-07T04:31:20.227Z,57.04
2022-11-07T04:32:20.214Z,54.79
2022-11-07T04:33:54.140Z,56.40
2022-11-07T04:34:20.196Z,55.59
2022-11-07T04:35:20.223Z,57.52
2022-11-07T04:36:20.203Z,59.14
2022-11-07T04:37:20.183Z,55.91
2022-11-07T04:38:20.260Z,56.88
2022-11-07T04:39:20.166Z,55.43
2022-11-07T04:40:20.345Z,60.10
2022-11-07T04:41:20.182Z,59.30
2022-11-07T04:42:20.134Z,57.85
2022-11-07T04:43:20.132Z,53.17
2022-11-07T04:44:20.144Z,56.88
2022-11-07T04:45:20.115Z,51.40
2022-11-07T04:46:20.116Z,54.14
2022-11-07T04:47:20.102Z,56.88
2022-11-07T04:48:20.095Z,60.10
2022-11-07T04:49:20.096Z,59.62
2022-11-07T04:50:20.083Z,62.20
2022-11-07T04:51:20.065Z,64.29
2022-11-07T04:52:20.056Z,53.50
2022-11-07T04:53:20.041Z,56.24
2022-11-07T04:54:20.036Z,55.27
2022-11-07T04:55:20.030Z,53.82
2022-11-07T04:56:20.028Z,61.23
2022-11-07T04:57:20.013Z,57.69
2022-11-07T04:58:20.003Z,59.30
2022-11-07T04:59:20.010Z,60.75
2022-11-07T05:00:20.027Z,60.91
2022-11-07T05:01:20.003Z,53.82
2022-11-07T05:02:20.024Z,57.20
2022-11-07T05:03:20.250Z,55.11
2022-11-07T05:04:19.954Z,57.52
2022-11-07T05:05:19.950Z,54.95
2022-11-07T05:06:19.926Z,51.56
2022-11-07T05:07:20.938Z,51.56
2022-11-07T05:08:19.939Z,60.59
2022-11-07T05:09:19.921Z,53.50
2022-11-07T05:10:19.913Z,58.81
2022-11-07T05:11:19.911Z,56.40
2022-11-07T05:12:19.896Z,60.26
2022-11-07T05:13:19.895Z,58.65
2022-11-07T05:14:19.880Z,55.59
2022-11-07T05:15:20.521Z,56.07
2022-11-07T05:16:20.529Z,53.33
2022-11-07T05:17:24.327Z,58.97
2022-11-07T05:18:20.856Z,59.30
2022-11-07T05:19:19.839Z,63.00
2022-11-07T05:20:21.604Z,63.16
2022-11-07T05:21:19.821Z,62.20
2022-11-07T05:22:19.828Z,61.87
2022-11-07T05:23:20.412Z,59.62
2022-11-07T05:24:19.811Z,59.94
2022-11-07T05:25:19.784Z,61.55
2022-11-07T05:26:19.779Z,61.07
2022-11-07T05:27:19.775Z,60.75
2022-11-07T05:28:25.739Z,56.07
2022-11-07T05:29:21.775Z,58.81
2022-11-07T05:30:19.798Z,61.23
2022-11-07T05:31:19.731Z,59.62
2022-11-07T05:32:19.765Z,55.27
2022-11-07T05:33:19.718Z,60.10
2022-11-07T05:34:20.119Z,59.94
2022-11-07T05:35:19.701Z,58.17
2022-11-07T05:36:19.705Z,63.16
2022-11-07T05:37:19.709Z,61.39
2022-11-07T05:38:19.692Z,62.68
2022-11-07T05:39:19.671Z,56.88
2022-11-07T05:40:19.660Z,57.36
2022-11-07T05:41:19.664Z,58.17
2022-11-07T05:42:19.663Z,57.36
2022-11-07T05:43:20.117Z,58.49
2022-11-07T05:44:19.634Z,58.33
2022-11-07T05:45:19.640Z,59.78
2022-11-07T05:46:20.616Z,53.01
2022-11-07T05:47:19.623Z,54.95
2022-11-07T05:48:19.620Z,56.72
2022-11-07T05:49:19.603Z,60.59
2022-11-07T05:50:19.592Z,62.68
2022-11-07T05:51:19.860Z,59.62
2022-11-07T05:52:21.638Z,60.42
2022-11-07T05:53:21.148Z,60.91
2022-11-07T05:54:19.553Z,59.94
2022-11-07T05:55:19.585Z,59.94
2022-11-07T05:56:19.542Z,62.04
2022-11-07T05:57:19.541Z,61.55
2022-11-07T05:58:19.533Z,58.01
2022-11-07T05:59:20.056Z,61.39
2022-11-07T06:00:19.647Z,59.30
2022-11-07T06:01:19.509Z,59.62
2022-11-07T06:02:19.712Z,60.10
2022-11-07T06:03:19.990Z,63.49
2022-11-07T06:04:19.483Z,63.81
2022-11-07T06:05:24.015Z,60.75
2022-11-07T06:06:20.461Z,61.87
2022-11-07T06:07:19.459Z,60.75
2022-11-07T06:08:19.439Z,59.14
2022-11-07T06:09:19.450Z,60.26
2022-11-07T06:10:19.439Z,60.42
2022-11-07T06:11:19.426Z,63.81
2022-11-07T06:12:19.442Z,62.20
2022-11-07T06:13:19.625Z,63.16
2022-11-07T06:14:19.408Z,62.52
2022-11-07T06:15:19.395Z,62.20
2022-11-07T06:16:20.112Z,60.75
2022-11-07T06:17:21.107Z,63.49
2022-11-07T06:18:19.355Z,63.16
2022-11-07T06:19:20.109Z,61.07
2022-11-07T06:20:19.343Z,64.78
2022-11-07T06:21:22.062Z,64.29
2022-11-07T06:22:22.110Z,59.46
2022-11-07T06:23:20.434Z,62.20
2022-11-07T06:24:19.317Z,62.68
2022-11-07T06:25:19.327Z,63.65
2022-11-07T06:26:19.313Z,60.91
2022-11-07T06:27:20.048Z,60.75
2022-11-07T06:28:19.304Z,65.26
2022-11-07T06:29:20.119Z,63.33
2022-11-07T06:30:19.330Z,64.13
2022-11-07T06:31:19.267Z,65.58
2022-11-07T06:34:26.100Z,61.07
2022-11-07T06:35:27.188Z,62.52
2022-11-07T06:36:27.193Z,61.87
2022-11-07T06:37:27.168Z,60.42
2022-11-07T06:38:27.168Z,64.78
2022-11-07T06:39:27.148Z,61.55
2022-11-07T06:40:27.158Z,62.36
2022-11-07T06:41:27.145Z,63.33
2022-11-07T06:42:27.959Z,60.42
2022-11-07T06:43:27.124Z,61.23
2022-11-07T06:46:35.408Z,59.78
2022-11-07T06:47:35.388Z,63.65
2022-11-07T06:48:36.262Z,59.94
2022-11-07T06:49:35.371Z,60.10
2022-11-07T06:50:35.391Z,60.59
2022-11-07T06:51:36.460Z,61.39
2022-11-07T06:52:36.441Z,62.20
2022-11-07T06:53:36.445Z,60.59
2022-11-07T06:54:36.420Z,64.13
2022-11-07T06:55:36.441Z,62.36
2022-11-07T06:56:36.408Z,62.20
2022-11-07T06:57:37.313Z,60.91
2022-11-07T06:58:36.422Z,63.33
2022-11-07T06:59:37.265Z,61.55
2022-11-07T07:00:36.585Z,60.75
2022-11-07T07:01:36.531Z,61.87
2022-11-07T07:02:57.549Z,63.65
2022-11-07T07:03:38.482Z,65.42
2022-11-07T07:04:37.357Z,63.33
2022-11-07T07:05:39.789Z,63.81
2022-11-07T07:06:36.322Z,60.26
2022-11-07T07:07:36.337Z,63.65
2022-11-07T07:08:36.311Z,60.59
2022-11-07T07:09:36.316Z,64.45
2022-11-07T07:10:36.295Z,60.75
2022-11-07T07:11:40.261Z,63.00
2022-11-07T07:12:36.267Z,65.26
2022-11-07T07:13:36.261Z,61.23
2022-11-07T07:14:36.254Z,62.36
2022-11-07T07:15:49.814Z,62.04
2022-11-07T07:16:38.228Z,63.16
2022-11-07T07:17:36.339Z,59.94
2022-11-07T07:18:36.229Z,61.39
2022-11-07T07:19:36.209Z,62.20
2022-11-07T07:20:36.237Z,64.78
2022-11-07T07:21:36.865Z,59.78
2022-11-07T07:22:36.199Z,59.94
2022-11-07T07:23:36.185Z,61.55
2022-11-07T07:24:36.198Z,61.87
2022-11-07T07:25:36.173Z,57.52
2022-11-07T07:26:36.158Z,60.75
2022-11-07T07:27:36.153Z,61.23
2022-11-07T07:28:36.148Z,63.16
2022-11-07T07:29:36.136Z,62.20
2022-11-07T07:30:36.125Z,65.26
2022-11-07T07:31:36.115Z,62.68
2022-11-07T07:32:36.106Z,60.91
2022-11-07T07:33:36.199Z,61.87
2022-11-07T07:34:36.086Z,60.59
2022-11-07T07:35:36.099Z,59.46
2022-11-07T07:36:36.087Z,61.55
2022-11-07T07:37:36.070Z,60.59
2022-11-07T07:38:36.079Z,61.07
2022-11-07T07:39:36.056Z,64.29
2022-11-07T07:40:36.052Z,60.26
2022-11-07T07:41:40.065Z,60.42
2022-11-07T07:42:37.059Z,63.16
2022-11-07T07:43:36.016Z,62.20
2022-11-07T07:44:36.018Z,64.29
2022-11-07T07:45:37.007Z,62.04
2022-11-07T07:46:36.796Z,58.65
2022-11-07T07:47:35.993Z,61.23
2022-11-07T07:48:35.978Z,59.62
2022-11-07T07:49:36.067Z,61.39
2022-11-07T07:50:35.965Z,57.85
2022-11-07T07:51:35.952Z,59.62
2022-11-07T07:54:42.798Z,62.52
2022-11-07T07:55:42.792Z,62.52
2022-11-07T07:56:42.777Z,63.00
2022-11-07T07:57:42.776Z,66.06
2022-11-07T07:58:42.768Z,63.00
2022-11-07T07:59:42.752Z,59.46
2022-11-07T08:00:42.816Z,64.45
2022-11-07T08:01:42.922Z,60.91
2022-11-07T08:02:42.730Z,64.94
2022-11-07T08:04:00.726Z,60.59
2022-11-07T08:04:43.815Z,62.68
2022-11-07T08:05:45.658Z,60.59
2022-11-07T08:06:42.696Z,59.62
2022-11-07T08:07:42.702Z,59.78
2022-11-07T08:08:42.684Z,61.71
2022-11-07T08:09:42.678Z,61.23
2022-11-07T08:10:43.337Z,61.07
2022-11-07T08:11:43.662Z,61.39
2022-11-07T08:12:42.646Z,63.97
2022-11-07T08:13:42.638Z,60.59
2022-11-07T08:14:42.636Z,60.10
2022-11-07T08:15:42.622Z,60.91
2022-11-07T08:16:43.713Z,60.91
2022-11-07T08:17:43.702Z,59.62
2022-11-07T08:18:43.715Z,62.84
2022-11-07T08:19:44.602Z,63.33
2022-11-07T08:20:44.075Z,64.78
2022-11-07T08:21:43.770Z,57.69
2022-11-07T08:22:43.681Z,58.17
2022-11-07T08:23:43.661Z,59.94
2022-11-07T08:24:43.642Z,60.91
2022-11-07T08:25:43.649Z,60.75
2022-11-07T08:26:43.635Z,58.97
2022-11-07T08:27:44.167Z,59.30
2022-11-07T08:28:43.612Z,60.42
2022-11-07T08:29:43.603Z,60.75
2022-11-07T08:30:43.596Z,60.75
2022-11-07T08:31:43.601Z,61.39
2022-11-07T08:32:43.597Z,62.04
2022-11-07T08:33:45.291Z,62.36
2022-11-07T08:34:45.189Z,62.36
2022-11-07T08:35:43.560Z,63.00
2022-11-07T08:36:43.553Z,63.65
2022-11-07T08:37:44.264Z,63.65
2022-11-07T08:38:43.529Z,60.42
2022-11-07T08:39:43.528Z,62.36
2022-11-07T08:40:43.519Z,59.62
2022-11-07T08:41:43.523Z,62.20
2022-11-07T08:42:43.518Z,64.78
2022-11-07T08:43:43.491Z,61.23
2022-11-07T08:44:43.481Z,60.91
2022-11-07T08:45:43.479Z,61.23
2022-11-07T08:46:43.478Z,60.59
2022-11-07T08:47:44.172Z,58.65
2022-11-07T08:48:43.458Z,59.94
2022-11-07T08:49:43.466Z,60.75
2022-11-07T08:50:43.442Z,58.01
2022-11-07T08:51:43.424Z,60.75
2022-11-07T08:52:43.433Z,58.97
2022-11-07T08:53:43.408Z,62.68
2022-11-07T08:54:43.427Z,61.71
2022-11-07T08:55:43.397Z,59.94
2022-11-07T08:56:43.380Z,59.94
2022-11-07T08:57:43.384Z,63.33
2022-11-07T08:58:43.365Z,60.91
2022-11-07T08:59:43.364Z,58.81
2022-11-07T09:00:43.397Z,62.04
2022-11-07T09:02:14.346Z,62.20
2022-11-07T09:03:23.859Z,61.87
2022-11-07T09:03:50.259Z,62.52
2022-11-07T09:04:45.379Z,63.33
2022-11-07T09:05:44.185Z,60.10
2022-11-07T09:06:43.301Z,60.10
2022-11-07T09:07:43.294Z,60.42
2022-11-07T09:08:43.300Z,57.85
2022-11-07T09:09:43.280Z,60.10
2022-11-07T09:10:43.691Z,58.17
2022-11-07T09:11:43.259Z,59.62
2022-11-07T09:12:43.256Z,60.10
2022-11-07T09:13:43.258Z,60.26
2022-11-07T09:14:43.238Z,60.91
2022-11-07T09:15:49.396Z,59.30
2022-11-07T09:16:45.217Z,59.30
2022-11-07T09:17:43.211Z,60.75
2022-11-07T09:18:43.212Z,60.42
2022-11-07T09:19:43.210Z,61.87
2022-11-07T09:20:43.194Z,62.52
2022-11-07T09:21:43.185Z,62.68
2022-11-07T09:22:43.198Z,61.55
2022-11-07T09:23:43.174Z,61.55
2022-11-07T09:24:43.178Z,61.39
2022-11-07T09:25:43.154Z,62.36
2022-11-07T09:26:43.155Z,60.75
2022-11-07T09:27:43.136Z,60.42
2022-11-07T09:28:47.048Z,59.94
2022-11-07T09:29:45.123Z,61.39
2022-11-07T09:30:43.130Z,65.42
2022-11-07T09:31:43.679Z,63.00
2022-11-07T09:32:45.586Z,62.36
2022-11-07T09:33:44.089Z,62.36
2022-11-07T09:34:43.086Z,60.10
2022-11-07T09:35:43.081Z,57.52
2022-11-07T09:36:43.064Z,61.55
2022-11-07T09:37:43.068Z,63.81
2022-11-07T09:38:43.053Z,63.16
2022-11-07T09:39:43.056Z,63.16
2022-11-07T09:40:43.290Z,64.61
2022-11-07T09:41:43.021Z,59.30
2022-11-07T09:42:43.022Z,61.23
2022-11-07T09:43:43.018Z,58.81
2022-11-07T09:44:43.005Z,58.81
2022-11-07T09:45:43.006Z,61.39
2022-11-07T09:46:42.998Z,61.87
2022-11-07T09:47:42.987Z,59.30
2022-11-07T09:48:42.979Z,60.26
2022-11-07T09:49:43.688Z,61.39
2022-11-07T09:50:43.687Z,61.23
2022-11-07T09:51:42.953Z,61.87
2022-11-07T09:52:43.771Z,61.23
2022-11-07T09:53:44.760Z,59.94
2022-11-07T09:54:42.931Z,59.78
2022-11-07T09:55:42.917Z,59.62
2022-11-07T09:56:42.910Z,60.42
2022-11-07T09:57:42.899Z,60.10
2022-11-07T09:58:42.927Z,62.68
2022-11-07T09:59:42.882Z,59.14
2022-11-07T10:00:42.942Z,63.33
2022-11-07T10:01:43.012Z,64.13
2022-11-07T10:02:42.871Z,63.49
2022-11-07T10:03:52.951Z,60.91
2022-11-07T10:04:44.844Z,61.55
2022-11-07T10:05:42.832Z,59.78
2022-11-07T10:06:42.834Z,60.42
2022-11-07T10:07:42.819Z,61.23
2022-11-07T10:08:44.779Z,59.46
2022-11-07T10:09:42.836Z,60.26
2022-11-07T10:10:42.794Z,59.94
2022-11-07T10:11:42.803Z,61.71
2022-11-07T10:12:44.842Z,62.68
2022-11-07T10:13:43.777Z,61.87
2022-11-07T10:14:42.765Z,62.04
2022-11-07T10:15:42.764Z,61.07
2022-11-07T10:16:42.779Z,59.46
2022-11-07T10:17:42.746Z,61.39
2022-11-07T10:18:42.745Z,63.49
2022-11-07T10:19:42.738Z,64.78
2022-11-07T10:20:42.721Z,62.20
2022-11-07T10:21:42.712Z,61.71
2022-11-07T10:22:42.715Z,62.68
2022-11-07T10:23:42.687Z,60.10
2022-11-07T10:24:42.685Z,62.20
2022-11-07T10:25:42.675Z,63.49
2022-11-07T10:26:42.677Z,60.26
2022-11-07T10:27:42.663Z,61.23
2022-11-07T10:28:42.658Z,59.78
2022-11-07T10:29:44.740Z,61.23
2022-11-07T10:30:43.633Z,64.78
2022-11-07T10:31:42.633Z,62.84
2022-11-07T10:32:42.623Z,59.94
2022-11-07T10:33:42.620Z,63.49
2022-11-07T10:34:42.629Z,61.55
2022-11-07T10:35:42.595Z,61.71
2022-11-07T10:36:42.599Z,65.90
2022-11-07T10:37:42.587Z,61.55
2022-11-07T10:38:42.572Z,60.91
2022-11-07T10:39:42.580Z,60.10
2022-11-07T10:40:44.195Z,62.20
2022-11-07T10:41:42.558Z,61.87
2022-11-07T10:42:42.539Z,61.39
2022-11-07T10:43:44.225Z,62.68
2022-11-07T10:44:43.422Z,58.17
2022-11-07T10:45:42.521Z,60.42
2022-11-07T10:46:42.503Z,60.91
2022-11-07T10:47:42.496Z,57.52
2022-11-07T10:48:42.506Z,61.23
2022-11-07T10:49:42.508Z,61.23
2022-11-07T10:50:42.475Z,62.36
2022-11-07T10:51:43.286Z,58.65
2022-11-07T10:52:42.461Z,58.01
2022-11-07T10:53:42.470Z,61.71
2022-11-07T10:54:42.454Z,60.75
2022-11-07T10:55:42.434Z,61.71
2022-11-07T10:56:42.434Z,61.07
2022-11-07T10:57:42.420Z,59.14
2022-11-07T10:58:42.453Z,61.55
2022-11-07T10:59:42.414Z,60.42
2022-11-07T11:00:42.499Z,61.23
2022-11-07T11:01:42.475Z,62.20
2022-11-07T11:02:42.387Z,60.75
2022-11-07T11:03:44.866Z,60.42
2022-11-07T11:04:48.016Z,59.30
2022-11-07T11:05:44.373Z,59.62
2022-11-07T11:06:42.375Z,60.91
2022-11-07T11:07:44.309Z,59.14
2022-11-07T11:08:42.379Z,61.55
2022-11-07T11:09:44.219Z,59.94
2022-11-07T11:10:42.348Z,60.42
2022-11-07T11:11:42.329Z,60.91
2022-11-07T11:12:42.990Z,58.33
2022-11-07T11:13:47.308Z,59.62
2022-11-07T11:14:52.822Z,61.71
2022-11-07T11:15:42.814Z,60.59
2022-11-07T11:16:42.432Z,61.87
2022-11-07T11:17:42.269Z,59.30
2022-11-07T11:18:42.287Z,60.91
2022-11-07T11:19:42.259Z,63.97
2022-11-07T11:20:42.246Z,65.10
2022-11-07T11:21:42.248Z,60.42
2022-11-07T11:22:43.220Z,60.26
2022-11-07T11:23:42.235Z,60.10
2022-11-07T11:24:42.232Z,60.42
2022-11-07T11:25:44.745Z,62.36
2022-11-07T11:26:42.719Z,61.71
2022-11-07T11:27:42.194Z,61.23
2022-11-07T11:28:42.183Z,58.65
2022-11-07T11:29:42.801Z,64.61
2022-11-07T11:30:42.159Z,61.55
2022-11-07T11:31:42.148Z,61.23
2022-11-07T11:32:43.796Z,60.75
2022-11-07T11:33:42.154Z,60.75
2022-11-07T11:34:42.139Z,59.94
2022-11-07T11:35:42.528Z,63.00
2022-11-07T11:36:43.102Z,62.20
2022-11-07T11:37:42.099Z,65.26
2022-11-07T11:38:43.220Z,59.62
2022-11-07T11:39:42.078Z,60.10
2022-11-07T11:40:42.092Z,62.36
2022-11-07T11:41:42.061Z,59.14
2022-11-07T11:42:42.063Z,60.10
2022-11-07T11:43:42.055Z,60.26
2022-11-07T11:44:42.054Z,56.07
2022-11-07T11:45:43.824Z,56.72
2022-11-07T11:46:43.731Z,58.97
2022-11-07T11:47:43.824Z,59.94
2022-11-07T11:48:42.024Z,60.42
2022-11-07T11:49:44.826Z,59.94
2022-11-07T11:50:43.003Z,61.23
2022-11-07T11:51:41.992Z,60.26
2022-11-07T11:52:41.987Z,61.71
2022-11-07T11:53:41.979Z,58.81
2022-11-07T11:54:41.965Z,59.46
2022-11-07T11:55:41.964Z,61.87
2022-11-07T11:56:41.953Z,59.46
2022-11-07T11:57:41.939Z,62.36
2022-11-07T11:58:41.938Z,60.10
2022-11-07T11:59:41.947Z,63.65
2022-11-07T12:00:41.919Z,65.10
2022-11-07T12:01:41.907Z,63.49
2022-11-07T12:02:41.957Z,63.16
2022-11-07T12:03:41.913Z,64.45
2022-11-07T12:04:42.036Z,61.71
2022-11-07T12:05:41.876Z,61.23
2022-11-07T12:06:41.871Z,62.04
2022-11-07T12:07:41.859Z,61.87
2022-11-07T12:08:41.880Z,62.84
2022-11-07T12:09:41.868Z,60.10
2022-11-07T12:10:43.726Z,61.71
2022-11-07T12:11:41.862Z,59.46
2022-11-07T12:12:41.828Z,63.65
2022-11-07T12:13:42.809Z,60.91
2022-11-07T12:14:41.812Z,61.55
2022-11-07T12:15:41.805Z,59.30
2022-11-07T12:16:41.791Z,60.91
2022-11-07T12:17:41.802Z,62.04
2022-11-07T12:18:41.782Z,61.87
2022-11-07T12:19:41.832Z,68.16
2022-11-07T12:20:41.782Z,65.42
2022-11-07T12:21:47.336Z,58.49
2022-11-07T12:22:43.740Z,60.91
2022-11-07T12:23:41.736Z,59.62
2022-11-07T12:24:41.757Z,61.39
2022-11-07T12:25:41.748Z,61.07
2022-11-07T12:26:41.715Z,61.55
2022-11-07T12:30:01.917Z,61.23
2022-11-07T12:31:00.046Z,61.39
2022-11-07T12:32:00.031Z,60.75
2022-11-07T12:33:00.037Z,60.75
2022-11-07T12:34:01.905Z,60.10
2022-11-07T12:35:01.113Z,61.07
2022-11-07T12:36:01.109Z,61.87
2022-11-07T12:37:01.090Z,60.42
2022-11-07T12:38:01.091Z,60.59
2022-11-07T12:39:01.084Z,62.20
2022-11-07T12:40:01.065Z,62.52
2022-11-07T12:41:01.085Z,63.81
2022-11-07T12:42:01.071Z,60.75
2022-11-07T12:43:01.063Z,58.01
2022-11-07T12:44:01.998Z,60.26
2022-11-07T12:45:01.031Z,59.78
2022-11-07T12:46:01.028Z,60.26
2022-11-07T12:47:01.018Z,61.07
2022-11-07T12:48:01.013Z,59.30
2022-11-07T12:49:00.988Z,59.94
2022-11-07T12:50:01.994Z,60.91
2022-11-07T12:51:01.029Z,61.07
2022-11-07T12:52:00.979Z,57.52
2022-11-07T12:53:00.969Z,61.23
2022-11-07T12:54:00.958Z,59.62
2022-11-07T12:55:00.957Z,62.84
2022-11-07T12:56:00.960Z,60.91
2022-11-07T12:57:00.936Z,60.59
2022-11-07T12:58:00.937Z,60.91
2022-11-07T12:59:00.920Z,60.59
2022-11-07T13:00:00.927Z,59.62
2022-11-07T13:01:00.977Z,61.07
2022-11-07T13:02:01.075Z,59.94
2022-11-07T13:03:00.891Z,59.94